sensor_id;sensor_type;location;lat;lon;timestamp;temperature;humidity
52016;DHT22;38032;53.326;6.472;2023-01-26T00:01:26;3.40;99.90
52016;DHT22;38032;53.326;6.472;2023-01-26T00:03:54;3.40;99.90
52016;DHT22;38032;53.326;6.472;2023-01-26T00:06:21;3.40;99.90
52016;DHT22;38032;53.326;6.472;2023-01-26T00:08:50;3.40;99.90
52016;DHT22;38032;53.326;6.472;2023-01-26T00:11:18;3.50;99.90
52016;DHT22;38032;53.326;6.472;2023-01-26T00:13:45;3.50;99.90
52016;DHT22;38032;53.326;6.472;2023-01-26T00:16:14;3.50;99.90
52016;DHT22;38032;53.326;6.472;2023-01-26T00:18:40;3.50;99.90
52016;DHT22;38032;53.326;6.472;2023-01-26T00:21:08;3.50;99.90
52016;DHT22;38032;53.326;6.472;2023-01-26T00:23:36;3.50;99.90
52016;DHT22;38032;53.326;6.472;2023-01-26T00:26:05;3.50;99.90
52016;DHT22;38032;53.326;6.472;2023-01-26T00:28:31;3.50;99.90
52016;DHT22;38032;53.326;6.472;2023-01-26T00:31:03;3.50;99.90
52016;DHT22;38032;53.326;6.472;2023-01-26T00:33:29;3.50;99.90
52016;DHT22;38032;53.326;6.472;2023-01-26T00:35:55;3.50;99.90
52016;DHT22;38032;53.326;6.472;2023-01-26T00:38:21;3.50;99.90
52016;DHT22;38032;53.326;6.472;2023-01-26T00:40:47;3.50;99.90
52016;DHT22;38032;53.326;6.472;2023-01-26T00:43:13;3.50;99.90
52016;DHT22;38032;53.326;6.472;2023-01-26T00:45:39;3.50;99.90
52016;DHT22;38032;53.326;6.472;2023-01-26T00:48:06;3.50;99.90
52016;DHT22;38032;53.326;6.472;2023-01-26T00:50:32;3.50;99.90
52016;DHT22;38032;53.326;6.472;2023-01-26T00:52:58;3.60;99.90
52016;DHT22;38032;53.326;6.472;2023-01-26T00:55:25;3.60;99.90
52016;DHT22;38032;53.326;6.472;2023-01-26T00:58:00;3.60;99.90
52016;DHT22;38032;53.326;6.472;2023-01-26T01:00:27;3.60;99.90
52016;DHT22;38032;53.326;6.472;2023-01-26T01:02:55;3.60;99.90
52016;DHT22;38032;53.326;6.472;2023-01-26T01:05:22;3.60;99.90
52016;DHT22;38032;53.326;6.472;2023-01-26T01:07:49;3.50;99.90
52016;DHT22;38032;53.326;6.472;2023-01-26T01:10:15;3.50;99.90
52016;DHT22;38032;53.326;6.472;2023-01-26T01:12:41;3.50;99.90
52016;DHT22;38032;53.326;6.472;2023-01-26T01:15:07;3.40;99.90
52016;DHT22;38032;53.326;6.472;2023-01-26T01:17:33;3.40;99.90
52016;DHT22;38032;53.326;6.472;2023-01-26T01:20:02;3.30;99.90
52016;DHT22;38032;53.326;6.472;2023-01-26T01:22:28;3.30;99.90
52016;DHT22;38032;53.326;6.472;2023-01-26T01:24:54;3.20;99.90
52016;DHT22;38032;53.326;6.472;2023-01-26T01:27:20;3.20;99.90
52016;DHT22;38032;53.326;6.472;2023-01-26T01:29:46;3.20;99.90
52016;DHT22;38032;53.326;6.472;2023-01-26T01:32:12;3.20;99.90
52016;DHT22;38032;53.326;6.472;2023-01-26T01:34:37;3.20;99.90
52016;DHT22;38032;53.326;6.472;2023-01-26T01:37:03;3.10;99.90
52016;DHT22;38032;53.326;6.472;2023-01-26T01:39:29;3.20;99.90
52016;DHT22;38032;53.326;6.472;2023-01-26T01:41:55;3.20;99.90
52016;DHT22;38032;53.326;6.472;2023-01-26T01:44:23;3.20;99.90
52016;DHT22;38032;53.326;6.472;2023-01-26T01:46:50;3.20;99.90
52016;DHT22;38032;53.326;6.472;2023-01-26T01:49:19;3.20;99.90
52016;DHT22;38032;53.326;6.472;2023-01-26T01:51:57;3.20;99.90
52016;DHT22;38032;53.326;6.472;2023-01-26T01:54:31;3.20;99.90
52016;DHT22;38032;53.326;6.472;2023-01-26T01:57:02;3.20;99.90
52016;DHT22;38032;53.326;6.472;2023-01-26T01:59:30;3.20;99.90
52016;DHT22;38032;53.326;6.472;2023-01-26T02:01:57;3.10;99.90
52016;DHT22;38032;53.326;6.472;2023-01-26T02:04:24;3.20;99.90
52016;DHT22;38032;53.326;6.472;2023-01-26T02:06:55;3.20;99.90
52016;DHT22;38032;53.326;6.472;2023-01-26T02:09:27;3.20;99.90
52016;DHT22;38032;53.326;6.472;2023-01-26T02:12:14;3.20;99.90
52016;DHT22;38032;53.326;6.472;2023-01-26T02:14:41;3.20;99.90
52016;DHT22;38032;53.326;6.472;2023-01-26T02:17:08;3.20;99.90
52016;DHT22;38032;53.326;6.472;2023-01-26T02:20:02;3.20;99.90
52016;DHT22;38032;53.326;6.472;2023-01-26T02:22:42;3.20;99.90
52016;DHT22;38032;53.326;6.472;2023-01-26T02:25:24;3.20;99.90
52016;DHT22;38032;53.326;6.472;2023-01-26T02:27:52;3.20;99.90
52016;DHT22;38032;53.326;6.472;2023-01-26T02:30:18;3.20;99.90
52016;DHT22;38032;53.326;6.472;2023-01-26T02:32:45;3.20;99.90
52016;DHT22;38032;53.326;6.472;2023-01-26T02:35:11;3.20;99.90
52016;DHT22;38032;53.326;6.472;2023-01-26T02:52:39;3.30;99.90
52016;DHT22;38032;53.326;6.472;2023-01-26T02:55:07;3.30;99.90
52016;DHT22;38032;53.326;6.472;2023-01-26T03:05:11;3.40;99.90
52016;DHT22;38032;53.326;6.472;2023-01-26T03:07:37;3.40;99.90
52016;DHT22;38032;53.326;6.472;2023-01-26T03:10:04;3.40;99.90
52016;DHT22;38032;53.326;6.472;2023-01-26T03:12:30;3.40;99.90
52016;DHT22;38032;53.326;6.472;2023-01-26T03:14:56;3.40;99.90
52016;DHT22;38032;53.326;6.472;2023-01-26T03:17:40;3.40;99.90
52016;DHT22;38032;53.326;6.472;2023-01-26T03:20:07;3.40;99.90
52016;DHT22;38032;53.326;6.472;2023-01-26T03:22:52;3.40;99.90
52016;DHT22;38032;53.326;6.472;2023-01-26T03:25:36;3.40;99.90
52016;DHT22;38032;53.326;6.472;2023-01-26T03:28:21;3.40;99.90
52016;DHT22;38032;53.326;6.472;2023-01-26T03:30:48;3.40;99.90
52016;DHT22;38032;53.326;6.472;2023-01-26T03:33:15;3.40;99.90
52016;DHT22;38032;53.326;6.472;2023-01-26T03:35:41;3.40;99.90
52016;DHT22;38032;53.326;6.472;2023-01-26T03:38:07;3.40;99.90
52016;DHT22;38032;53.326;6.472;2023-01-26T03:40:33;3.40;99.90
52016;DHT22;38032;53.326;6.472;2023-01-26T03:43:17;3.50;99.90
52016;DHT22;38032;53.326;6.472;2023-01-26T03:46:03;3.50;99.90
52016;DHT22;38032;53.326;6.472;2023-01-26T03:48:47;5.20;99.90
52016;DHT22;38032;53.326;6.472;2023-01-26T03:51:31;3.50;99.90
52016;DHT22;38032;53.326;6.472;2023-01-26T03:54:16;3.50;99.90
52016;DHT22;38032;53.326;6.472;2023-01-26T03:57:00;3.50;99.90
52016;DHT22;38032;53.326;6.472;2023-01-26T03:59:26;3.60;99.90
52016;DHT22;38032;53.326;6.472;2023-01-26T04:02:05;3.60;99.90
52016;DHT22;38032;53.326;6.472;2023-01-26T04:04:50;3.60;99.90
52016;DHT22;38032;53.326;6.472;2023-01-26T04:07:34;3.60;99.90
52016;DHT22;38032;53.326;6.472;2023-01-26T04:10:19;3.60;99.90
52016;DHT22;38032;53.326;6.472;2023-01-26T04:12:45;3.70;99.90
52016;DHT22;38032;53.326;6.472;2023-01-26T04:15:29;3.70;99.90
52016;DHT22;38032;53.326;6.472;2023-01-26T04:18:13;3.70;99.90
52016;DHT22;38032;53.326;6.472;2023-01-26T04:20:57;3.70;99.90
52016;DHT22;38032;53.326;6.472;2023-01-26T04:23:41;3.70;99.90
52016;DHT22;38032;53.326;6.472;2023-01-26T04:26:07;3.70;99.90
52016;DHT22;38032;53.326;6.472;2023-01-26T04:28:33;3.80;99.90
52016;DHT22;38032;53.326;6.472;2023-01-26T04:31:00;3.80;99.90
52016;DHT22;38032;53.326;6.472;2023-01-26T04:33:29;3.80;99.90
52016;DHT22;38032;53.326;6.472;2023-01-26T04:35:55;3.80;99.90
52016;DHT22;38032;53.326;6.472;2023-01-26T04:38:21;3.90;99.90
52016;DHT22;38032;53.326;6.472;2023-01-26T04:40:53;3.90;99.90
52016;DHT22;38032;53.326;6.472;2023-01-26T04:43:19;3.90;99.90
52016;DHT22;38032;53.326;6.472;2023-01-26T04:45:57;3.90;99.90
52016;DHT22;38032;53.326;6.472;2023-01-26T04:48:23;4.00;99.90
52016;DHT22;38032;53.326;6.472;2023-01-26T04:50:55;4.00;99.90
52016;DHT22;38032;53.326;6.472;2023-01-26T04:53:21;4.00;99.90
52016;DHT22;38032;53.326;6.472;2023-01-26T04:55:47;4.10;99.90
52016;DHT22;38032;53.326;6.472;2023-01-26T04:58:13;4.10;99.90
52016;DHT22;38032;53.326;6.472;2023-01-26T05:00:39;4.10;99.90
52016;DHT22;38032;53.326;6.472;2023-01-26T05:03:05;4.20;99.90
52016;DHT22;38032;53.326;6.472;2023-01-26T05:05:35;4.20;99.90
52016;DHT22;38032;53.326;6.472;2023-01-26T05:08:02;4.30;99.90
52016;DHT22;38032;53.326;6.472;2023-01-26T05:10:28;4.30;99.90
52016;DHT22;38032;53.326;6.472;2023-01-26T05:12:54;4.30;99.90
52016;DHT22;38032;53.326;6.472;2023-01-26T05:15:20;4.40;99.90
52016;DHT22;38032;53.326;6.472;2023-01-26T05:17:46;4.30;99.90
52016;DHT22;38032;53.326;6.472;2023-01-26T05:20:12;4.40;99.90
52016;DHT22;38032;53.326;6.472;2023-01-26T05:22:38;4.40;99.90
52016;DHT22;38032;53.326;6.472;2023-01-26T05:25:04;4.40;99.90
52016;DHT22;38032;53.326;6.472;2023-01-26T05:27:30;4.50;99.90
52016;DHT22;38032;53.326;6.472;2023-01-26T05:29:56;4.50;99.90
52016;DHT22;38032;53.326;6.472;2023-01-26T05:32:26;4.50;99.90
52016;DHT22;38032;53.326;6.472;2023-01-26T05:34:52;4.60;99.90
52016;DHT22;38032;53.326;6.472;2023-01-26T05:37:18;4.60;99.90
52016;DHT22;38032;53.326;6.472;2023-01-26T05:39:44;4.70;99.90
52016;DHT22;38032;53.326;6.472;2023-01-26T05:42:11;4.70;99.90
52016;DHT22;38032;53.326;6.472;2023-01-26T05:44:37;4.80;99.90
52016;DHT22;38032;53.326;6.472;2023-01-26T05:47:04;4.90;99.90
52016;DHT22;38032;53.326;6.472;2023-01-26T05:49:30;5.00;99.90
52016;DHT22;38032;53.326;6.472;2023-01-26T05:51:56;5.00;99.90
52016;DHT22;38032;53.326;6.472;2023-01-26T05:54:25;5.20;99.90
52016;DHT22;38032;53.326;6.472;2023-01-26T05:56:51;5.20;99.90
52016;DHT22;38032;53.326;6.472;2023-01-26T05:59:18;5.20;99.90
52016;DHT22;38032;53.326;6.472;2023-01-26T06:01:44;5.30;99.90
52016;DHT22;38032;53.326;6.472;2023-01-26T06:04:10;5.30;99.90
52016;DHT22;38032;53.326;6.472;2023-01-26T06:06:35;5.40;99.90
52016;DHT22;38032;53.326;6.472;2023-01-26T06:09:01;5.50;99.90
52016;DHT22;38032;53.326;6.472;2023-01-26T06:11:27;5.50;99.90
52016;DHT22;38032;53.326;6.472;2023-01-26T06:13:53;5.60;99.90
52016;DHT22;38032;53.326;6.472;2023-01-26T06:16:19;5.70;99.90
52016;DHT22;38032;53.326;6.472;2023-01-26T06:19:03;5.80;99.90
52016;DHT22;38032;53.326;6.472;2023-01-26T06:21:31;5.80;99.90
52016;DHT22;38032;53.326;6.472;2023-01-26T06:23:58;5.90;99.90
52016;DHT22;38032;53.326;6.472;2023-01-26T06:26:24;5.90;99.90
52016;DHT22;38032;53.326;6.472;2023-01-26T06:28:51;6.00;99.90
52016;DHT22;38032;53.326;6.472;2023-01-26T06:31:18;6.00;99.90
52016;DHT22;38032;53.326;6.472;2023-01-26T06:33:44;6.00;99.90
52016;DHT22;38032;53.326;6.472;2023-01-26T06:36:12;6.00;99.90
52016;DHT22;38032;53.326;6.472;2023-01-26T06:38:44;6.00;99.90
52016;DHT22;38032;53.326;6.472;2023-01-26T06:41:10;6.00;99.90
52016;DHT22;38032;53.326;6.472;2023-01-26T06:43:36;5.90;99.90
52016;DHT22;38032;53.326;6.472;2023-01-26T06:46:04;5.90;99.90
52016;DHT22;38032;53.326;6.472;2023-01-26T06:48:33;5.90;99.90
52016;DHT22;38032;53.326;6.472;2023-01-26T06:51:31;5.90;99.90
52016;DHT22;38032;53.326;6.472;2023-01-26T06:53:55;5.90;99.90
52016;DHT22;38032;53.326;6.472;2023-01-26T06:56:22;5.90;99.90
52016;DHT22;38032;53.326;6.472;2023-01-26T06:58:49;5.90;99.90
52016;DHT22;38032;53.326;6.472;2023-01-26T07:01:19;5.90;99.90
52016;DHT22;38032;53.326;6.472;2023-01-26T07:03:47;6.00;99.90
52016;DHT22;38032;53.326;6.472;2023-01-26T07:06:13;6.00;99.90
52016;DHT22;38032;53.326;6.472;2023-01-26T07:08:39;6.00;99.90
52016;DHT22;38032;53.326;6.472;2023-01-26T07:11:06;6.00;99.90
52016;DHT22;38032;53.326;6.472;2023-01-26T07:13:32;6.00;99.90
52016;DHT22;38032;53.326;6.472;2023-01-26T07:16:04;6.10;99.90
52016;DHT22;38032;53.326;6.472;2023-01-26T07:18:31;6.00;99.90
52016;DHT22;38032;53.326;6.472;2023-01-26T07:21:00;6.10;99.90
52016;DHT22;38032;53.326;6.472;2023-01-26T07:23:29;6.10;99.90
52016;DHT22;38032;53.326;6.472;2023-01-26T07:25:55;6.10;99.90
52016;DHT22;38032;53.326;6.472;2023-01-26T07:28:21;6.20;99.90
52016;DHT22;38032;53.326;6.472;2023-01-26T07:30:48;6.00;99.90
52016;DHT22;38032;53.326;6.472;2023-01-26T07:33:14;6.00;99.90
52016;DHT22;38032;53.326;6.472;2023-01-26T07:35:40;6.00;99.90
52016;DHT22;38032;53.326;6.472;2023-01-26T07:38:06;6.00;99.90
52016;DHT22;38032;53.326;6.472;2023-01-26T07:40:32;6.10;99.90
52016;DHT22;38032;53.326;6.472;2023-01-26T07:42:59;6.20;99.90
52016;DHT22;38032;53.326;6.472;2023-01-26T07:45:26;6.20;99.90
52016;DHT22;38032;53.326;6.472;2023-01-26T07:47:56;6.20;99.90
52016;DHT22;38032;53.326;6.472;2023-01-26T07:50:22;6.20;99.90
52016;DHT22;38032;53.326;6.472;2023-01-26T07:52:50;6.10;99.90
52016;DHT22;38032;53.326;6.472;2023-01-26T07:55:18;6.00;99.90
52016;DHT22;38032;53.326;6.472;2023-01-26T07:57:53;5.90;99.90
52016;DHT22;38032;53.326;6.472;2023-01-26T08:00:19;5.90;99.90
52016;DHT22;38032;53.326;6.472;2023-01-26T08:02:49;5.80;99.90
52016;DHT22;38032;53.326;6.472;2023-01-26T08:05:15;5.70;99.90
52016;DHT22;38032;53.326;6.472;2023-01-26T08:07:41;5.70;99.90
52016;DHT22;38032;53.326;6.472;2023-01-26T08:10:07;5.70;99.90
52016;DHT22;38032;53.326;6.472;2023-01-26T08:12:35;5.80;99.90
52016;DHT22;38032;53.326;6.472;2023-01-26T08:15:02;5.90;99.90
52016;DHT22;38032;53.326;6.472;2023-01-26T08:17:28;6.00;99.90
52016;DHT22;38032;53.326;6.472;2023-01-26T08:19:54;6.20;99.90
52016;DHT22;38032;53.326;6.472;2023-01-26T08:24:47;6.70;99.90
52016;DHT22;38032;53.326;6.472;2023-01-26T08:27:13;6.70;99.90
52016;DHT22;38032;53.326;6.472;2023-01-26T08:29:41;6.90;99.90
52016;DHT22;38032;53.326;6.472;2023-01-26T08:32:07;7.10;99.90
52016;DHT22;38032;53.326;6.472;2023-01-26T08:34:34;7.30;99.90
52016;DHT22;38032;53.326;6.472;2023-01-26T08:37:00;7.50;99.90
52016;DHT22;38032;53.326;6.472;2023-01-26T08:39:27;7.70;99.90
52016;DHT22;38032;53.326;6.472;2023-01-26T08:41:53;7.90;99.90
52016;DHT22;38032;53.326;6.472;2023-01-26T08:44:19;8.00;99.90
52016;DHT22;38032;53.326;6.472;2023-01-26T08:46:44;8.10;99.90
52016;DHT22;38032;53.326;6.472;2023-01-26T08:49:10;8.20;99.90
52016;DHT22;38032;53.326;6.472;2023-01-26T08:51:36;8.40;99.90
52016;DHT22;38032;53.326;6.472;2023-01-26T08:54:05;8.50;99.90
52016;DHT22;38032;53.326;6.472;2023-01-26T08:56:33;8.40;99.90
52016;DHT22;38032;53.326;6.472;2023-01-26T08:58:59;8.40;99.90
52016;DHT22;38032;53.326;6.472;2023-01-26T09:01:26;8.30;99.90
52016;DHT22;38032;53.326;6.472;2023-01-26T09:03:51;8.30;99.90
52016;DHT22;38032;53.326;6.472;2023-01-26T09:06:19;8.20;99.90
52016;DHT22;38032;53.326;6.472;2023-01-26T09:08:45;8.10;99.90
52016;DHT22;38032;53.326;6.472;2023-01-26T09:11:11;8.10;99.90
52016;DHT22;38032;53.326;6.472;2023-01-26T09:13:37;8.00;99.90
52016;DHT22;38032;53.326;6.472;2023-01-26T09:16:06;8.00;99.90
52016;DHT22;38032;53.326;6.472;2023-01-26T09:18:33;8.00;99.90
52016;DHT22;38032;53.326;6.472;2023-01-26T09:21:04;8.30;99.90
52016;DHT22;38032;53.326;6.472;2023-01-26T09:23:32;8.70;99.90
52016;DHT22;38032;53.326;6.472;2023-01-26T09:25:58;9.00;99.90
52016;DHT22;38032;53.326;6.472;2023-01-26T09:28:24;9.60;99.90
52016;DHT22;38032;53.326;6.472;2023-01-26T09:30:50;9.90;99.90
52016;DHT22;38032;53.326;6.472;2023-01-26T09:33:16;11.00;99.90
52016;DHT22;38032;53.326;6.472;2023-01-26T09:35:42;10.90;99.90
52016;DHT22;38032;53.326;6.472;2023-01-26T09:38:08;11.00;99.90
52016;DHT22;38032;53.326;6.472;2023-01-26T09:48:43;10.50;99.90
52016;DHT22;38032;53.326;6.472;2023-01-26T09:51:13;10.40;99.90
52016;DHT22;38032;53.326;6.472;2023-01-26T09:53:43;10.30;99.90
52016;DHT22;38032;53.326;6.472;2023-01-26T09:56:18;10.20;99.90
52016;DHT22;38032;53.326;6.472;2023-01-26T09:58:57;10.20;99.90
52016;DHT22;38032;53.326;6.472;2023-01-26T10:01:37;10.20;99.90
52016;DHT22;38032;53.326;6.472;2023-01-26T10:04:13;10.30;99.90
52016;DHT22;38032;53.326;6.472;2023-01-26T10:06:43;10.30;99.90
52016;DHT22;38032;53.326;6.472;2023-01-26T10:09:19;10.30;99.90
52016;DHT22;38032;53.326;6.472;2023-01-26T10:11:52;10.20;99.90
52016;DHT22;38032;53.326;6.472;2023-01-26T10:14:27;10.30;99.90
52016;DHT22;38032;53.326;6.472;2023-01-26T10:16:57;10.30;99.90
52016;DHT22;38032;53.326;6.472;2023-01-26T10:22:02;10.30;99.90
52016;DHT22;38032;53.326;6.472;2023-01-26T10:24:32;10.30;99.90
52016;DHT22;38032;53.326;6.472;2023-01-26T10:26:59;10.40;99.90
52016;DHT22;38032;53.326;6.472;2023-01-26T10:29:25;10.30;99.90
52016;DHT22;38032;53.326;6.472;2023-01-26T10:31:51;10.70;99.90
52016;DHT22;38032;53.326;6.472;2023-01-26T10:34:22;10.80;99.90
52016;DHT22;38032;53.326;6.472;2023-01-26T10:36:49;10.90;99.90
52016;DHT22;38032;53.326;6.472;2023-01-26T10:39:16;11.00;99.90
52016;DHT22;38032;53.326;6.472;2023-01-26T10:42:01;11.20;99.90
52016;DHT22;38032;53.326;6.472;2023-01-26T10:44:32;11.30;99.90
52016;DHT22;38032;53.326;6.472;2023-01-26T10:47:06;11.50;99.90
52016;DHT22;38032;53.326;6.472;2023-01-26T10:49:38;11.50;99.90
52016;DHT22;38032;53.326;6.472;2023-01-26T10:52:07;11.50;99.90
52016;DHT22;38032;53.326;6.472;2023-01-26T10:54:34;11.40;99.90
52016;DHT22;38032;53.326;6.472;2023-01-26T10:57:03;11.50;99.90
52016;DHT22;38032;53.326;6.472;2023-01-26T11:04:39;12.10;99.90
52016;DHT22;38032;53.326;6.472;2023-01-26T11:07:27;12.10;99.90
52016;DHT22;38032;53.326;6.472;2023-01-26T11:09:54;12.20;99.90
52016;DHT22;38032;53.326;6.472;2023-01-26T11:12:21;12.20;99.90
52016;DHT22;38032;53.326;6.472;2023-01-26T11:15:00;12.30;99.90
52016;DHT22;38032;53.326;6.472;2023-01-26T11:17:37;12.40;99.90
52016;DHT22;38032;53.326;6.472;2023-01-26T11:23:02;12.40;99.90
52016;DHT22;38032;53.326;6.472;2023-01-26T11:25:37;12.30;99.90
52016;DHT22;38032;53.326;6.472;2023-01-26T11:31:08;12.10;99.90
52016;DHT22;38032;53.326;6.472;2023-01-26T11:33:48;12.00;99.90
52016;DHT22;38032;53.326;6.472;2023-01-26T11:36:34;11.90;99.90
52016;DHT22;38032;53.326;6.472;2023-01-26T11:41:47;11.80;99.90
52016;DHT22;38032;53.326;6.472;2023-01-26T11:44:43;11.70;99.90
52016;DHT22;38032;53.326;6.472;2023-01-26T11:47:28;11.70;99.90
52016;DHT22;38032;53.326;6.472;2023-01-26T11:50:22;11.60;99.90
52016;DHT22;38032;53.326;6.472;2023-01-26T11:55:37;11.60;99.90
52016;DHT22;38032;53.326;6.472;2023-01-26T11:58:30;11.50;99.90
52016;DHT22;38032;53.326;6.472;2023-01-26T12:01:01;11.50;99.90
52016;DHT22;38032;53.326;6.472;2023-01-26T12:06:07;11.50;99.90
52016;DHT22;38032;53.326;6.472;2023-01-26T12:08:42;11.40;99.90
52016;DHT22;38032;53.326;6.472;2023-01-26T12:11:21;11.40;99.90
52016;DHT22;38032;53.326;6.472;2023-01-26T12:13:58;11.30;99.90
52016;DHT22;38032;53.326;6.472;2023-01-26T12:16:35;11.30;99.90
52016;DHT22;38032;53.326;6.472;2023-01-26T12:19:12;11.20;99.90
52016;DHT22;38032;53.326;6.472;2023-01-26T12:21:44;11.20;99.90
52016;DHT22;38032;53.326;6.472;2023-01-26T12:24:19;11.30;99.90
52016;DHT22;38032;53.326;6.472;2023-01-26T12:26:49;11.30;99.90
52016;DHT22;38032;53.326;6.472;2023-01-26T12:29:36;11.30;99.90
52016;DHT22;38032;53.326;6.472;2023-01-26T12:32:10;11.30;99.90
52016;DHT22;38032;53.326;6.472;2023-01-26T12:34:37;11.20;99.90
52016;DHT22;38032;53.326;6.472;2023-01-26T12:37:29;11.20;99.90
52016;DHT22;38032;53.326;6.472;2023-01-26T12:40:07;11.20;99.90
52016;DHT22;38032;53.326;6.472;2023-01-26T12:42:46;11.20;99.90
52016;DHT22;38032;53.326;6.472;2023-01-26T12:45:18;11.20;99.90
52016;DHT22;38032;53.326;6.472;2023-01-26T12:47:52;11.20;99.90
52016;DHT22;38032;53.326;6.472;2023-01-26T12:50:38;11.20;99.90
52016;DHT22;38032;53.326;6.472;2023-01-26T12:53:12;11.30;99.90
52016;DHT22;38032;53.326;6.472;2023-01-26T12:55:46;11.20;99.90
52016;DHT22;38032;53.326;6.472;2023-01-26T12:58:19;11.20;99.90
52016;DHT22;38032;53.326;6.472;2023-01-26T13:01:06;11.20;99.90
52016;DHT22;38032;53.326;6.472;2023-01-26T13:03:35;11.20;99.90
52016;DHT22;38032;53.326;6.472;2023-01-26T13:11:06;11.10;99.90
52016;DHT22;38032;53.326;6.472;2023-01-26T13:13:51;11.10;99.90
52016;DHT22;38032;53.326;6.472;2023-01-26T13:18:49;11.00;99.90
52016;DHT22;38032;53.326;6.472;2023-01-26T13:21:42;10.90;99.90
52016;DHT22;38032;53.326;6.472;2023-01-26T13:26:44;10.90;99.90
52016;DHT22;38032;53.326;6.472;2023-01-26T13:31:54;10.80;99.90
52016;DHT22;38032;53.326;6.472;2023-01-26T13:34:25;10.70;99.90
52016;DHT22;38032;53.326;6.472;2023-01-26T13:36:52;10.70;99.90
52016;DHT22;38032;53.326;6.472;2023-01-26T13:39:30;10.60;99.90
52016;DHT22;38032;53.326;6.472;2023-01-26T13:41:56;10.60;99.90
52016;DHT22;38032;53.326;6.472;2023-01-26T13:44:33;10.60;99.90
52016;DHT22;38032;53.326;6.472;2023-01-26T13:47:08;10.60;99.90
52016;DHT22;38032;53.326;6.472;2023-01-26T13:49:37;10.60;99.90
52016;DHT22;38032;53.326;6.472;2023-01-26T13:52:16;10.60;99.90
52016;DHT22;38032;53.326;6.472;2023-01-26T13:54:43;10.60;99.90
52016;DHT22;38032;53.326;6.472;2023-01-26T13:57:11;10.50;99.90
52016;DHT22;38032;53.326;6.472;2023-01-26T13:59:56;10.50;99.90
52016;DHT22;38032;53.326;6.472;2023-01-26T14:02:28;10.50;99.90
52016;DHT22;38032;53.326;6.472;2023-01-26T14:04:56;10.50;99.90
52016;DHT22;38032;53.326;6.472;2023-01-26T14:07:27;10.60;99.90
52016;DHT22;38032;53.326;6.472;2023-01-26T14:09:55;10.60;99.90
52016;DHT22;38032;53.326;6.472;2023-01-26T14:12:26;10.60;99.90
52016;DHT22;38032;53.326;6.472;2023-01-26T14:14:56;10.60;99.90
52016;DHT22;38032;53.326;6.472;2023-01-26T14:17:29;10.60;99.90
52016;DHT22;38032;53.326;6.472;2023-01-26T14:19:56;10.60;99.90
52016;DHT22;38032;53.326;6.472;2023-01-26T14:22:25;10.60;99.90
52016;DHT22;38032;53.326;6.472;2023-01-26T14:24:52;10.60;99.90
52016;DHT22;38032;53.326;6.472;2023-01-26T14:27:35;10.50;99.90
52016;DHT22;38032;53.326;6.472;2023-01-26T14:30:05;10.50;99.90
52016;DHT22;38032;53.326;6.472;2023-01-26T14:32:46;10.50;99.90
52016;DHT22;38032;53.326;6.472;2023-01-26T14:35:19;10.40;99.90
52016;DHT22;38032;53.326;6.472;2023-01-26T14:37:47;10.40;99.90
52016;DHT22;38032;53.326;6.472;2023-01-26T14:40:22;10.40;99.90
52016;DHT22;38032;53.326;6.472;2023-01-26T14:42:50;10.40;99.90
52016;DHT22;38032;53.326;6.472;2023-01-26T14:45:18;10.40;99.90
52016;DHT22;38032;53.326;6.472;2023-01-26T14:47:48;10.30;99.90
52016;DHT22;38032;53.326;6.472;2023-01-26T14:50:19;10.30;99.90
52016;DHT22;38032;53.326;6.472;2023-01-26T14:52:47;10.30;99.90
52016;DHT22;38032;53.326;6.472;2023-01-26T14:55:25;10.30;99.90
52016;DHT22;38032;53.326;6.472;2023-01-26T14:57:51;10.20;99.90
52016;DHT22;38032;53.326;6.472;2023-01-26T15:00:24;10.30;99.90
52016;DHT22;38032;53.326;6.472;2023-01-26T15:02:54;10.20;99.90
52016;DHT22;38032;53.326;6.472;2023-01-26T15:05:30;10.20;99.90
52016;DHT22;38032;53.326;6.472;2023-01-26T15:07:59;10.10;99.90
52016;DHT22;38032;53.326;6.472;2023-01-26T15:15:46;10.00;99.90
52016;DHT22;38032;53.326;6.472;2023-01-26T15:20:50;9.90;99.90
52016;DHT22;38032;53.326;6.472;2023-01-26T15:23:26;9.90;99.90
52016;DHT22;38032;53.326;6.472;2023-01-26T15:25:52;9.80;99.90
52016;DHT22;38032;53.326;6.472;2023-01-26T15:28:22;9.80;99.90
52016;DHT22;38032;53.326;6.472;2023-01-26T15:30:53;9.70;99.90
52016;DHT22;38032;53.326;6.472;2023-01-26T15:33:45;9.60;99.90
52016;DHT22;38032;53.326;6.472;2023-01-26T15:38:57;9.40;99.90
52016;DHT22;38032;53.326;6.472;2023-01-26T15:41:24;9.40;99.90
52016;DHT22;38032;53.326;6.472;2023-01-26T15:43:50;9.30;99.90
52016;DHT22;38032;53.326;6.472;2023-01-26T15:46:16;9.20;99.90
52016;DHT22;38032;53.326;6.472;2023-01-26T15:48:42;9.20;99.90
52016;DHT22;38032;53.326;6.472;2023-01-26T15:51:12;9.10;99.90
52016;DHT22;38032;53.326;6.472;2023-01-26T15:53:38;9.10;99.90
52016;DHT22;38032;53.326;6.472;2023-01-26T15:56:05;9.00;99.90
52016;DHT22;38032;53.326;6.472;2023-01-26T15:58:34;9.00;99.90
52016;DHT22;38032;53.326;6.472;2023-01-26T16:01:01;8.90;99.90
52016;DHT22;38032;53.326;6.472;2023-01-26T16:03:27;8.90;99.90
52016;DHT22;38032;53.326;6.472;2023-01-26T16:05:53;8.80;99.90
52016;DHT22;38032;53.326;6.472;2023-01-26T16:08:19;8.80;99.90
52016;DHT22;38032;53.326;6.472;2023-01-26T16:10:45;8.70;99.90
52016;DHT22;38032;53.326;6.472;2023-01-26T16:13:13;8.70;99.90
52016;DHT22;38032;53.326;6.472;2023-01-26T16:15:44;8.60;99.90
52016;DHT22;38032;53.326;6.472;2023-01-26T16:18:11;8.60;99.90
52016;DHT22;38032;53.326;6.472;2023-01-26T16:20:39;8.60;99.90
52016;DHT22;38032;53.326;6.472;2023-01-26T16:23:18;8.60;99.90
52016;DHT22;38032;53.326;6.472;2023-01-26T16:25:45;8.50;99.90
52016;DHT22;38032;53.326;6.472;2023-01-26T16:28:11;8.50;99.90
52016;DHT22;38032;53.326;6.472;2023-01-26T16:30:37;8.50;99.90
52016;DHT22;38032;53.326;6.472;2023-01-26T16:33:03;8.40;99.90
52016;DHT22;38032;53.326;6.472;2023-01-26T16:35:29;8.40;99.90
52016;DHT22;38032;53.326;6.472;2023-01-26T16:37:55;8.40;99.90
52016;DHT22;38032;53.326;6.472;2023-01-26T16:40:21;8.40;99.90
52016;DHT22;38032;53.326;6.472;2023-01-26T16:42:50;8.40;99.90
52016;DHT22;38032;53.326;6.472;2023-01-26T16:45:20;8.30;99.90
52016;DHT22;38032;53.326;6.472;2023-01-26T16:47:49;8.30;99.90
52016;DHT22;38032;53.326;6.472;2023-01-26T16:50:17;8.30;99.90
52016;DHT22;38032;53.326;6.472;2023-01-26T16:52:43;8.30;99.90
52016;DHT22;38032;53.326;6.472;2023-01-26T16:55:10;8.20;99.90
52016;DHT22;38032;53.326;6.472;2023-01-26T16:57:39;8.20;99.90
52016;DHT22;38032;53.326;6.472;2023-01-26T17:00:09;8.20;99.90
52016;DHT22;38032;53.326;6.472;2023-01-26T17:02:38;8.20;99.90
52016;DHT22;38032;53.326;6.472;2023-01-26T17:05:04;8.10;99.90
52016;DHT22;38032;53.326;6.472;2023-01-26T17:07:30;8.10;99.90
52016;DHT22;38032;53.326;6.472;2023-01-26T17:09:56;8.00;99.90
52016;DHT22;38032;53.326;6.472;2023-01-26T17:12:22;8.00;99.90
52016;DHT22;38032;53.326;6.472;2023-01-26T17:14:48;8.00;99.90
52016;DHT22;38032;53.326;6.472;2023-01-26T17:17:14;7.90;99.90
52016;DHT22;38032;53.326;6.472;2023-01-26T17:19:39;7.90;99.90